Time;durP1;ratioP1;P1;durP2;ratioP2;P2;SDS_P1;SDS_P2;PMS_P1;PMS_P2;Temp;Humidity;BMP_temperature;BMP_pressure;BME280_temperature;BME280_humidity;BME280_pressure;Samples;Min_cycle;Max_cycle;Signal;HPM_P1;HPM_P2
2022/11/12 00:00:28;;;;;;;8.00;4.10;;;3.90;99.90;;;;;;6158715;23;20208;-43
2022/11/12 00:02:54;;;;;;;5.67;4.00;;;3.90;99.90;;;;;;6158656;23;20154;-42
2022/11/12 00:05:19;;;;;;;5.10;3.70;;;3.90;99.90;;;;;;6158231;23;20168;-43
2022/11/12 00:07:45;;;;;;;5.83;4.03;;;3.90;99.90;;;;;;6158343;23;20176;-43
2022/11/12 00:10:10;;;;;;;6.03;4.17;;;3.80;99.90;;;;;;6157895;23;20179;-42
2022/11/12 00:12:36;;;;;;;5.20;4.10;;;3.80;99.90;;;;;;6158225;23;20161;-44
2022/11/12 00:15:02;;;;;;;5.80;4.27;;;3.80;99.90;;;;;;6158061;23;20186;-44
2022/11/12 00:17:27;;;;;;;5.90;4.33;;;3.80;99.90;;;;;;6157848;23;20177;-44
2022/11/12 00:19:53;;;;;;;7.10;3.97;;;3.80;99.90;;;;;;6158212;23;20165;-43
2022/11/12 00:22:20;;;;;;;4.80;3.87;;;3.70;99.90;;;;;;6158189;23;20158;-43
2022/11/12 00:24:45;;;;;;;6.00;4.07;;;3.70;99.90;;;;;;6157833;23;20162;-42
2022/11/12 00:27:11;;;;;;;7.77;4.43;;;3.70;99.90;;;;;;6157847;23;20294;-44
2022/11/12 00:29:37;;;;;;;5.57;3.80;;;3.60;99.90;;;;;;6157754;23;20158;-41
2022/11/12 00:32:07;;;;;;;5.23;3.80;;;3.60;99.90;;;;;;6131620;23;20167;-44
2022/11/12 00:34:33;;;;;;;6.80;4.23;;;3.60;99.90;;;;;;6157682;23;20177;-43
2022/11/12 00:37:00;;;;;;;6.97;4.10;;;3.60;99.90;;;;;;6157822;23;20154;-42
2022/11/12 00:39:25;;;;;;;5.07;3.87;;;3.60;99.90;;;;;;6157605;23;20169;-42
2022/11/12 00:41:51;;;;;;;6.57;4.37;;;3.50;99.90;;;;;;6157679;23;20160;-44
2022/11/12 00:44:17;;;;;;;9.63;4.63;;;3.50;99.90;;;;;;6157881;23;20166;-43
2022/11/12 00:46:42;;;;;;;5.93;4.20;;;3.50;99.90;;;;;;6157590;23;20598;-43
2022/11/12 00:49:08;;;;;;;8.97;4.33;;;3.50;99.90;;;;;;6131985;23;20182;-43
2022/11/12 00:51:34;;;;;;;6.20;4.30;;;3.40;99.90;;;;;;6157876;23;20162;-43
2022/11/12 00:54:00;;;;;;;5.77;4.37;;;3.40;99.90;;;;;;6157332;23;20214;-43
2022/11/12 00:56:26;;;;;;;5.80;4.17;;;3.40;99.90;;;;;;6155876;23;20153;-42
2022/11/12 00:58:51;;;;;;;6.63;4.30;;;3.40;99.90;;;;;;6157417;23;20184;-43
2022/11/12 01:01:17;;;;;;;7.13;4.30;;;3.40;99.90;;;;;;6157815;23;20164;-43
2022/11/12 01:03:43;;;;;;;6.20;4.20;;;3.40;99.90;;;;;;6157362;23;20153;-43
2022/11/12 01:06:14;;;;;;;6.57;4.43;;;3.40;99.90;;;;;;6131246;23;20220;-43
2022/11/12 01:08:40;;;;;;;5.83;4.50;;;3.30;99.90;;;;;;6157121;23;20182;-41
2022/11/12 01:11:11;;;;;;;6.63;4.80;;;3.30;99.90;;;;;;6157037;23;20154;-44
2022/11/12 01:13:38;;;;;;;7.27;4.30;;;3.30;99.90;;;;;;6157548;23;20142;-41
2022/11/12 01:16:19;;;;;;;6.87;4.97;;;3.30;99.90;;;;;;6157241;23;20158;-41
2022/11/12 01:18:46;;;;;;;4.90;3.87;;;3.30;99.90;;;;;;6131078;23;20184;-42
2022/11/12 01:21:13;;;;;;;8.00;4.43;;;3.30;99.90;;;;;;6157218;23;20177;-40
2022/11/12 01:23:40;;;;;;;6.07;4.17;;;3.30;99.90;;;;;;6157265;23;20150;-42
2022/11/12 01:26:09;;;;;;;6.23;4.53;;;3.30;99.90;;;;;;6157460;23;20165;-46
2022/11/12 01:28:36;;;;;;;7.47;4.73;;;3.30;99.90;;;;;;6157158;23;20173;-44
2022/11/12 01:31:21;;;;;;;6.93;4.40;;;3.20;99.90;;;;;;6157174;23;20158;-43
2022/11/12 01:33:51;;;;;;;6.83;4.33;;;3.30;99.90;;;;;;6157255;23;20523;-42
2022/11/12 01:36:19;;;;;;;6.37;3.93;;;3.20;99.90;;;;;;6157260;23;20168;-42
2022/11/12 01:38:46;;;;;;;8.40;4.07;;;3.30;99.90;;;;;;6157110;23;20264;-41
2022/11/12 01:41:17;;;;;;;6.57;4.37;;;3.20;99.90;;;;;;6131034;23;20158;-43
2022/11/12 01:43:43;;;;;;;7.23;4.30;;;3.20;99.90;;;;;;6157395;23;20176;-43
2022/11/12 01:46:28;;;;;;;6.07;4.33;;;3.20;99.90;;;;;;6156987;23;20150;-43
2022/11/12 01:49:00;;;;;;;6.53;4.47;;;3.20;99.90;;;;;;6157283;23;20174;-41
2022/11/12 01:51:36;;;;;;;7.40;4.83;;;3.20;99.90;;;;;;6156999;23;20148;-42
2022/11/12 01:54:08;;;;;;;6.67;4.43;;;3.30;99.90;;;;;;6157160;23;20703;-41
2022/11/12 01:56:34;;;;;;;6.33;4.57;;;3.40;99.90;;;;;;6157097;23;20226;-42
2022/11/12 01:59:19;;;;;;;6.80;4.63;;;3.40;99.90;;;;;;6156787;23;20627;-43
2022/11/12 02:01:44;;;;;;;6.40;4.20;;;3.40;99.90;;;;;;6157288;23;20173;-43
2022/11/12 02:04:10;;;;;;;6.67;4.00;;;3.40;99.90;;;;;;6156855;23;20161;-43
2022/11/12 02:06:38;;;;;;;8.60;4.70;;;3.40;99.90;;;;;;6157118;23;20162;-44
2022/11/12 02:09:04;;;;;;;5.67;4.30;;;3.40;99.90;;;;;;6156502;23;20272;-43
2022/11/12 02:11:30;;;;;;;6.33;4.50;;;3.40;99.90;;;;;;6156758;23;20596;-42
2022/11/12 02:13:56;;;;;;;6.77;4.63;;;3.40;99.90;;;;;;6157004;23;20183;-42
2022/11/12 02:16:28;;;;;;;7.03;4.43;;;3.40;99.90;;;;;;6156831;23;20169;-42
2022/11/12 02:18:53;;;;;;;11.33;4.60;;;3.40;99.90;;;;;;6157612;23;20248;-42
2022/11/12 02:21:21;;;;;;;6.10;4.43;;;3.30;99.90;;;;;;6157044;23;20178;-43
2022/11/12 02:23:55;;;;;;;8.30;4.60;;;3.40;99.90;;;;;;6157790;23;20159;-42
2022/11/12 02:26:21;;;;;;;8.53;4.83;;;3.40;99.90;;;;;;6131319;23;20207;-46
2022/11/12 02:28:46;;;;;;;9.00;5.50;;;3.40;99.90;;;;;;6156996;23;20248;-44
2022/11/12 02:31:12;;;;;;;10.90;5.83;;;3.50;99.90;;;;;;6157121;23;20534;-43
2022/11/12 02:33:37;;;;;;;9.23;5.83;;;3.50;99.90;;;;;;6156575;23;20162;-44
2022/11/12 02:36:03;;;;;;;10.90;6.40;;;3.60;99.90;;;;;;6156567;23;20153;-42
2022/11/12 02:38:29;;;;;;;14.23;6.33;;;3.70;99.90;;;;;;6156501;23;20173;-43
2022/11/12 02:40:54;;;;;;;10.93;5.93;;;3.70;99.90;;;;;;6156453;23;20232;-42
2022/11/12 02:43:20;;;;;;;8.43;5.70;;;3.80;99.90;;;;;;6156419;23;20589;-43
2022/11/12 02:45:45;;;;;;;9.83;6.13;;;3.80;99.90;;;;;;6156470;23;20237;-42
2022/11/12 02:48:11;;;;;;;11.33;5.83;;;3.80;99.90;;;;;;6156264;23;20181;-43
2022/11/12 02:50:36;;;;;;;9.33;5.87;;;3.90;99.90;;;;;;6156636;23;20191;-43
2022/11/12 02:53:02;;;;;;;8.70;6.20;;;3.90;99.90;;;;;;6156234;23;20154;-42
2022/11/12 02:55:28;;;;;;;12.03;6.63;;;3.90;99.90;;;;;;6156234;23;20200;-43
2022/11/12 02:57:57;;;;;;;9.80;6.27;;;3.90;99.90;;;;;;6156111;23;20236;-43
2022/11/12 03:00:23;;;;;;;11.27;6.47;;;3.90;99.90;;;;;;6156532;23;20241;-43
2022/11/12 03:03:00;;;;;;;9.20;6.80;;;3.90;99.90;;;;;;6156202;23;20181;-42
2022/11/12 03:05:31;;;;;;;10.20;6.40;;;3.90;99.90;;;;;;6156564;23;20499;-43
2022/11/12 03:07:59;;;;;;;10.23;6.33;;;3.90;99.90;;;;;;6156080;23;20503;-40
2022/11/12 03:10:26;;;;;;;14.50;6.67;;;3.90;99.90;;;;;;6156145;23;20220;-41
2022/11/12 03:12:52;;;;;;;8.90;5.57;;;3.90;99.90;;;;;;6156303;23;20181;-42
2022/11/12 03:15:18;;;;;;;7.83;5.80;;;3.90;99.90;;;;;;6156036;23;20188;-42
2022/11/12 03:17:44;;;;;;;10.07;5.97;;;3.80;99.90;;;;;;6156345;23;20252;-42
2022/11/12 03:20:10;;;;;;;9.60;5.83;;;3.80;99.90;;;;;;6156116;23;20161;-42
2022/11/12 03:22:36;;;;;;;13.67;5.73;;;3.80;99.90;;;;;;6156045;23;20154;-42
2022/11/12 03:25:03;;;;;;;9.03;5.30;;;3.80;99.90;;;;;;6156417;23;20161;-42
2022/11/12 03:27:28;;;;;;;12.30;6.03;;;3.90;99.90;;;;;;6155803;23;20184;-44
2022/11/12 03:29:54;;;;;;;12.00;5.93;;;3.90;99.90;;;;;;6155992;23;20189;-42
2022/11/12 03:32:19;;;;;;;10.57;5.40;;;3.90;99.90;;;;;;6155931;23;20168;-43
2022/11/12 03:34:45;;;;;;;9.07;5.50;;;3.90;99.90;;;;;;6155616;23;20177;-42
2022/11/12 03:37:10;;;;;;;10.70;5.90;;;3.90;99.90;;;;;;6156076;23;20589;-42
2022/11/12 03:39:36;;;;;;;7.77;5.57;;;4.00;99.90;;;;;;6156020;23;20587;-44
2022/11/12 03:42:02;;;;;;;9.27;5.40;;;4.00;99.90;;;;;;6155914;23;20156;-42
2022/11/12 03:44:28;;;;;;;9.97;5.67;;;4.00;99.90;;;;;;6156217;23;20154;-42
2022/11/12 03:46:53;;;;;;;9.73;4.93;;;4.00;99.90;;;;;;6155895;23;20216;-44
2022/11/12 03:49:19;;;;;;;7.50;4.93;;;3.90;99.90;;;;;;6156195;23;20216;-43
2022/11/12 03:51:45;;;;;;;7.07;5.23;;;3.90;99.90;;;;;;6156061;23;20232;-42
2022/11/12 03:54:11;;;;;;;11.37;5.60;;;3.80;99.90;;;;;;6155860;23;20177;-43
2022/11/12 03:56:37;;;;;;;7.27;5.40;;;3.80;99.90;;;;;;6155809;23;20161;-44
2022/11/12 03:59:03;;;;;;;9.20;5.13;;;3.70;99.90;;;;;;6155985;23;20177;-41
2022/11/12 04:01:28;;;;;;;10.63;5.33;;;3.70;99.90;;;;;;6156178;23;20517;-44
2022/11/12 04:03:54;;;;;;;7.53;4.90;;;3.70;99.90;;;;;;6156476;23;20231;-41
2022/11/12 04:09:04;;;;;;;6.27;5.00;;;3.70;99.90;;;;;;6156064;23;20529;-43
2022/11/12 04:11:29;;;;;;;7.80;5.47;;;3.60;99.90;;;;;;6156111;23;20142;-44
2022/11/12 04:13:55;;;;;;;7.90;4.97;;;3.60;99.90;;;;;;6155679;23;20228;-44
2022/11/12 04:21:59;;;;;;;8.43;4.93;;;3.50;99.90;;;;;;6156154;23;20150;-44
2022/11/12 04:27:29;;;;;;;8.63;5.13;;;3.40;99.90;;;;;;6155748;23;20200;-44
2022/11/12 04:32:45;;;;;;;8.17;4.87;;;3.40;99.90;;;;;;6156340;23;20225;-48
2022/11/12 04:35:11;;;;;;;8.87;5.17;;;3.40;99.90;;;;;;6156681;23;20181;-48
2022/11/12 04:37:43;;;;;;;8.73;5.10;;;3.30;99.90;;;;;;6156266;23;20253;-47
2022/11/12 04:46:00;;;;;;;8.03;5.50;;;3.20;99.90;;;;;;6158640;23;20153;-47
2022/11/12 04:48:26;;;;;;;6.90;5.27;;;3.20;99.90;;;;;;6158839;23;20182;-48
2022/11/12 04:50:58;;;;;;;8.30;5.40;;;3.20;99.90;;;;;;6158896;23;20162;-47
2022/11/12 04:53:24;;;;;;;7.60;5.07;;;3.20;99.90;;;;;;6158867;23;20153;-48
2022/11/12 04:55:51;;;;;;;7.73;5.40;;;3.20;99.90;;;;;;6158552;23;20620;-49
2022/11/12 04:58:17;;;;;;;6.53;4.43;;;3.10;99.90;;;;;;6158300;23;20170;-48
2022/11/12 05:00:42;;;;;;;10.60;4.57;;;3.20;99.90;;;;;;6158452;23;20164;-47
2022/11/12 05:03:08;;;;;;;6.13;4.73;;;3.10;99.90;;;;;;6159009;23;20161;-48
2022/11/12 05:05:33;;;;;;;7.63;5.00;;;3.10;99.90;;;;;;6158463;23;20209;-48
2022/11/12 05:08:00;;;;;;;8.50;5.03;;;3.10;99.90;;;;;;6158343;23;20216;-48
2022/11/12 05:10:26;;;;;;;7.37;4.87;;;3.10;99.90;;;;;;6158065;23;20221;-48
2022/11/12 05:12:52;;;;;;;6.77;5.30;;;3.20;99.90;;;;;;6158561;23;20158;-47
2022/11/12 05:15:18;;;;;;;7.53;5.17;;;3.20;99.90;;;;;;6158761;23;20197;-48
2022/11/12 05:17:44;;;;;;;7.77;5.67;;;3.20;99.90;;;;;;6158373;23;20264;-48
2022/11/12 05:20:11;;;;;;;7.20;5.13;;;3.20;99.90;;;;;;6158198;23;20228;-48
2022/11/12 05:22:37;;;;;;;6.73;5.00;;;3.30;99.90;;;;;;6158483;23;20161;-48
2022/11/12 05:25:03;;;;;;;10.13;5.10;;;3.30;99.90;;;;;;6158057;23;20158;-47
2022/11/12 05:27:29;;;;;;;7.80;5.17;;;3.20;99.90;;;;;;6158092;23;20212;-47
2022/11/12 05:29:55;;;;;;;8.97;5.53;;;3.20;99.90;;;;;;6158539;23;20506;-48
2022/11/12 05:32:20;;;;;;;7.43;4.87;;;3.20;99.90;;;;;;6158402;23;20189;-47
2022/11/12 05:34:46;;;;;;;8.70;5.27;;;3.20;99.90;;;;;;6158013;23;20643;-48
2022/11/12 05:37:13;;;;;;;7.57;4.53;;;3.20;99.90;;;;;;6157888;23;20150;-48
2022/11/12 05:39:38;;;;;;;6.40;4.67;;;3.20;99.90;;;;;;6158193;23;20491;-49
2022/11/12 05:42:06;;;;;;;8.27;4.80;;;3.20;99.90;;;;;;6158000;23;20206;-49
2022/11/12 05:44:32;;;;;;;7.93;5.27;;;3.10;99.90;;;;;;6158115;23;20165;-48
2022/11/12 05:46:58;;;;;;;9.33;4.87;;;3.10;99.90;;;;;;6158302;23;20162;-48
2022/11/12 05:49:23;;;;;;;7.70;4.53;;;3.10;99.90;;;;;;6131608;23;20190;-49
2022/11/12 05:51:50;;;;;;;7.37;4.33;;;3.00;99.90;;;;;;6158203;23;20164;-49
2022/11/12 05:54:16;;;;;;;5.97;4.80;;;3.00;99.90;;;;;;6157784;23;20178;-48
2022/11/12 05:56:41;;;;;;;7.57;5.40;;;2.90;99.90;;;;;;6157805;23;20181;-48
2022/11/12 05:59:10;;;;;;;7.80;4.60;;;3.00;99.90;;;;;;6157731;23;20185;-48
2022/11/12 06:01:45;;;;;;;10.00;5.10;;;3.00;99.90;;;;;;6157804;23;20208;-49
2022/11/12 06:04:13;;;;;;;8.50;5.83;;;3.00;99.90;;;;;;6157587;23;20148;-48
2022/11/12 06:06:39;;;;;;;9.00;5.50;;;3.10;99.90;;;;;;6157349;23;20158;-48
2022/11/12 06:09:05;;;;;;;7.60;5.87;;;3.10;99.90;;;;;;6157384;23;20189;-47
2022/11/12 06:11:31;;;;;;;6.60;5.40;;;3.20;99.90;;;;;;6157597;23;20164;-48
2022/11/12 06:13:57;;;;;;;8.83;5.83;;;3.20;99.90;;;;;;6157705;23;20161;-48
2022/11/12 06:16:22;;;;;;;10.47;6.00;;;3.20;99.90;;;;;;6157300;23;20158;-48
2022/11/12 06:18:48;;;;;;;9.40;6.00;;;3.20;99.90;;;;;;6157074;23;20169;-49
2022/11/12 06:21:19;;;;;;;10.47;5.63;;;3.30;99.90;;;;;;6157455;23;20196;-47
2022/11/12 06:23:54;;;;;;;8.67;6.20;;;3.30;99.90;;;;;;6157393;23;20486;-49
2022/11/12 06:26:20;;;;;;;10.13;6.60;;;3.30;99.90;;;;;;6157756;23;20490;-49
2022/11/12 06:28:46;;;;;;;7.37;5.70;;;3.30;99.90;;;;;;6157453;23;20174;-48
2022/11/12 06:31:12;;;;;;;10.27;6.37;;;3.30;99.90;;;;;;6157403;23;20149;-49
2022/11/12 06:33:38;;;;;;;7.40;5.40;;;3.30;99.90;;;;;;6157900;23;20477;-48
2022/11/12 06:36:05;;;;;;;8.13;5.40;;;3.30;99.90;;;;;;6157500;23;20185;-48
2022/11/12 06:38:33;;;;;;;7.90;5.53;;;3.20;99.90;;;;;;6157755;23;20636;-48
2022/11/12 06:40:58;;;;;;;10.27;6.00;;;3.20;99.90;;;;;;6157530;23;20157;-48
2022/11/12 06:43:26;;;;;;;8.77;5.97;;;3.20;99.90;;;;;;6157211;23;20150;-48
2022/11/12 06:45:52;;;;;;;9.57;5.37;;;3.20;99.90;;;;;;6157590;23;20667;-48
2022/11/12 06:48:17;;;;;;;8.37;6.03;;;3.20;99.90;;;;;;6157198;23;20201;-49
2022/11/12 06:50:43;;;;;;;7.03;5.00;;;3.20;99.90;;;;;;6157379;23;20593;-48
2022/11/12 06:53:09;;;;;;;8.00;5.73;;;3.20;99.90;;;;;;6157565;23;20627;-48
2022/11/12 06:55:34;;;;;;;9.93;6.03;;;3.20;99.90;;;;;;6157618;23;20186;-47
2022/11/12 06:58:00;;;;;;;7.70;5.60;;;3.30;99.90;;;;;;6156932;23;20177;-48
2022/11/12 07:00:25;;;;;;;8.90;5.93;;;3.30;99.90;;;;;;6157019;23;20154;-48
2022/11/12 07:02:51;;;;;;;10.27;6.43;;;3.40;99.90;;;;;;6157039;23;20158;-47
2022/11/12 07:05:16;;;;;;;11.77;6.23;;;3.40;99.90;;;;;;6156880;23;20157;-48
2022/11/12 07:07:42;;;;;;;10.33;6.80;;;3.50;99.90;;;;;;6157345;23;20178;-47
2022/11/12 07:10:08;;;;;;;9.17;6.03;;;3.50;99.90;;;;;;6156755;23;20620;-49
2022/11/12 07:12:34;;;;;;;10.77;6.83;;;3.50;99.90;;;;;;6131587;23;20153;-48
2022/11/12 07:14:59;;;;;;;10.87;6.63;;;3.50;99.90;;;;;;6156741;23;20236;-42
2022/11/12 07:17:25;;;;;;;9.57;6.37;;;3.50;99.90;;;;;;6155990;23;20182;-42
2022/11/12 07:19:50;;;;;;;8.33;6.03;;;3.60;99.90;;;;;;6156357;23;20595;-42
2022/11/12 07:22:16;;;;;;;12.23;7.27;;;3.60;99.90;;;;;;6156437;23;20154;-43
2022/11/12 07:24:41;;;;;;;11.37;7.17;;;3.60;99.90;;;;;;6156062;23;20157;-43
2022/11/12 07:27:07;;;;;;;9.73;6.77;;;3.70;99.90;;;;;;6129935;23;20170;-44
2022/11/12 07:29:32;;;;;;;10.70;6.70;;;3.80;99.90;;;;;;6156381;23;20204;-41
2022/11/12 07:31:58;;;;;;;9.63;6.97;;;3.80;99.90;;;;;;6156376;23;20165;-43
2022/11/12 07:34:23;;;;;;;10.13;7.37;;;3.90;99.90;;;;;;6155930;23;20260;-43
2022/11/12 07:36:50;;;;;;;10.27;7.07;;;3.90;99.90;;;;;;6156226;23;20150;-44
2022/11/12 07:39:16;;;;;;;16.40;7.03;;;4.00;99.90;;;;;;6156237;23;20185;-44
2022/11/12 07:41:42;;;;;;;10.77;7.50;;;4.00;99.90;;;;;;6155918;23;20154;-42
2022/11/12 07:44:08;;;;;;;16.17;8.50;;;4.20;99.90;;;;;;6155963;23;20659;-43
2022/11/12 07:46:33;;;;;;;11.00;7.77;;;4.20;99.90;;;;;;6155935;23;20188;-44
2022/11/12 07:48:59;;;;;;;11.47;7.40;;;4.30;99.90;;;;;;6156161;23;20212;-45
2022/11/12 07:51:27;;;;;;;11.43;7.93;;;4.30;99.90;;;;;;6129880;23;20602;-42
2022/11/12 07:53:55;;;;;;;13.67;7.70;;;4.40;99.90;;;;;;6155724;23;20168;-44
2022/11/12 07:56:23;;;;;;;12.77;7.60;;;4.50;99.90;;;;;;6129749;23;20157;-44
2022/11/12 07:58:49;;;;;;;12.07;7.53;;;4.50;99.90;;;;;;6154338;23;20181;-44
2022/11/12 08:01:30;;;;;;;13.80;7.77;;;4.60;99.90;;;;;;6155934;23;20249;-42
2022/11/12 08:03:56;;;;;;;12.37;7.63;;;4.70;99.90;;;;;;6156335;23;20213;-44
2022/11/12 08:06:23;;;;;;;11.23;7.77;;;4.80;99.90;;;;;;6156284;23;20154;-43
2022/11/12 08:08:55;;;;;;;11.83;8.20;;;4.90;99.90;;;;;;6129518;23;20205;-44
2022/11/12 08:11:21;;;;;;;12.63;9.10;;;5.00;99.90;;;;;;6154325;23;20208;-43
2022/11/12 08:13:47;;;;;;;13.80;8.70;;;5.10;99.90;;;;;;6155781;23;20166;-45
2022/11/12 08:16:13;;;;;;;13.77;9.00;;;5.20;99.90;;;;;;6156173;23;20146;-44
2022/11/12 08:18:39;;;;;;;14.17;8.67;;;5.20;99.90;;;;;;6155841;23;20174;-45
2022/11/12 08:21:06;;;;;;;15.80;9.67;;;5.30;99.90;;;;;;6157805;23;20158;-43
2022/11/12 08:23:32;;;;;;;15.67;9.53;;;5.40;99.90;;;;;;6157618;23;20156;-44
2022/11/12 08:26:02;;;;;;;12.83;7.60;;;5.40;99.90;;;;;;6158017;23;20213;-43
2022/11/12 08:28:29;;;;;;;15.60;8.00;;;5.50;99.90;;;;;;6131877;23;20185;-41
2022/11/12 08:30:55;;;;;;;10.70;7.90;;;5.60;99.90;;;;;;6157706;23;20237;-43
2022/11/12 08:33:21;;;;;;;13.47;7.63;;;5.70;99.90;;;;;;6131545;23;20166;-45
2022/11/12 08:35:47;;;;;;;13.73;6.90;;;5.80;99.90;;;;;;6158005;23;20231;-44
2022/11/12 08:38:13;;;;;;;10.90;7.03;;;5.90;99.90;;;;;;6131394;23;20560;-44
2022/11/12 08:40:39;;;;;;;10.97;6.87;;;6.00;99.90;;;;;;6157892;23;20185;-44
2022/11/12 08:43:09;;;;;;;10.10;7.10;;;6.10;99.90;;;;;;6157516;23;20186;-43
2022/11/12 08:45:37;;;;;;;9.77;6.83;;;6.20;99.90;;;;;;6157548;23;20153;-43
2022/11/12 08:48:06;;;;;;;9.97;6.83;;;6.30;99.90;;;;;;6131387;23;20546;-44
2022/11/12 08:50:33;;;;;;;12.20;7.57;;;6.40;99.90;;;;;;6157539;23;20531;-44
2022/11/12 08:53:03;;;;;;;11.20;7.23;;;6.50;99.90;;;;;;6157491;23;20157;-44
2022/11/12 08:55:30;;;;;;;11.27;7.40;;;6.60;99.90;;;;;;6157643;23;20169;-43
2022/11/12 08:58:00;;;;;;;14.53;9.20;;;6.60;99.90;;;;;;6155875;23;20177;-45
2022/11/12 09:00:27;;;;;;;12.77;8.27;;;6.70;99.90;;;;;;6157869;23;20496;-42
2022/11/12 09:02:52;;;;;;;13.70;9.33;;;6.80;99.90;;;;;;6131316;23;20161;-42
2022/11/12 09:05:18;;;;;;;13.03;9.13;;;6.90;99.90;;;;;;6131277;23;20499;-45
2022/11/12 09:07:43;;;;;;;20.80;8.17;;;7.00;99.90;;;;;;6157299;23;20174;-43
2022/11/12 09:10:09;;;;;;;12.23;8.73;;;7.10;99.90;;;;;;6157252;23;20174;-45
2022/11/12 09:12:34;;;;;;;11.43;7.90;;;7.20;99.90;;;;;;6131427;23;20182;-43
2022/11/12 09:15:00;;;;;;;11.97;7.37;;;7.20;99.90;;;;;;6157477;23;20190;-45
2022/11/12 09:17:28;;;;;;;12.27;7.33;;;7.30;99.90;;;;;;6157147;23;20227;-44
2022/11/12 09:19:53;;;;;;;10.73;7.43;;;7.40;99.90;;;;;;6157250;23;20183;-44
2022/11/12 09:22:19;;;;;;;14.37;7.83;;;7.50;99.90;;;;;;6157139;23;20179;-45
2022/11/12 09:24:44;;;;;;;11.70;8.70;;;7.50;99.90;;;;;;6157139;23;20198;-44
2022/11/12 09:27:10;;;;;;;10.67;7.17;;;7.60;99.90;;;;;;6157363;23;20159;-44
2022/11/12 09:29:35;;;;;;;11.80;8.33;;;7.70;99.90;;;;;;6131043;23;20548;-45
2022/11/12 09:32:01;;;;;;;12.87;7.33;;;7.80;99.90;;;;;;6130399;23;20629;-43
2022/11/12 09:34:27;;;;;;;15.20;7.13;;;7.90;99.90;;;;;;6157928;23;20271;-45
2022/11/12 09:36:54;;;;;;;10.33;7.80;;;8.00;99.90;;;;;;6157060;23;20183;-44
2022/11/12 09:39:19;;;;;;;10.17;7.00;;;8.10;99.90;;;;;;6156957;23;20174;-44
2022/11/12 09:41:45;;;;;;;8.70;6.47;;;8.20;99.90;;;;;;6157004;23;20152;-44
2022/11/12 09:44:14;;;;;;;9.17;7.23;;;8.30;99.90;;;;;;6130972;23;20185;-44
2022/11/12 09:47:24;;;;;;;8.30;6.50;;;8.40;99.90;;;;;;6155108;23;20186;-44
2022/11/12 09:50:13;;;;;;;7.53;5.90;;;8.40;99.90;;;;;;6038675;23;20606;-44
2022/11/12 09:52:42;;;;;;;8.13;5.03;;;8.50;99.90;;;;;;6038712;23;20477;-45
2022/11/12 09:55:32;;;;;;;6.47;5.07;;;8.60;99.90;;;;;;6119687;23;20184;-44
2022/11/12 09:57:58;;;;;;;7.87;5.20;;;8.70;99.90;;;;;;6156844;23;20181;-44
2022/11/12 10:00:23;;;;;;;6.90;5.10;;;8.80;99.90;;;;;;6130652;23;20218;-44
2022/11/12 10:03:06;;;;;;;7.67;5.40;;;8.90;99.90;;;;;;6157142;23;20165;-45
2022/11/12 10:05:42;;;;;;;5.63;4.47;;;8.90;99.90;;;;;;6157130;23;20239;-45
2022/11/12 10:08:45;;;;;;;5.50;4.70;;;9.10;99.90;;;;;;6157102;23;20585;-44
2022/11/12 10:12:30;;;;;;;8.53;4.83;;;9.20;99.90;;;;;;6157062;23;20491;-44
2022/11/12 10:14:34;;;;;;;6.93;4.80;;;9.20;99.90;;;;;;6156436;23;20719;-44
2022/11/12 10:17:19;;;;;;;7.53;4.70;;;9.30;99.90;;;;;;6156677;23;20253;-45
2022/11/12 10:19:55;;;;;;;5.10;4.27;;;9.40;99.90;;;;;;6156946;23;20142;-46
2022/11/12 10:22:29;;;;;;;6.17;4.20;;;9.40;99.90;;;;;;6156649;23;20153;-45
2022/11/12 10:24:56;;;;;;;5.40;4.43;;;9.50;99.90;;;;;;6157289;23;20148;-44
2022/11/12 10:27:30;;;;;;;6.03;4.30;;;9.60;99.90;;;;;;6130547;23;20244;-45
2022/11/12 10:29:59;;;;;;;8.23;4.90;;;9.60;99.90;;;;;;6156936;23;20532;-45
2022/11/12 10:32:24;;;;;;;5.03;4.17;;;9.70;99.90;;;;;;6156851;23;20597;-45
2022/11/12 10:34:50;;;;;;;7.07;4.57;;;9.80;99.90;;;;;;6156743;23;20276;-46
2022/11/12 10:37:27;;;;;;;6.10;4.20;;;9.80;99.90;;;;;;6156833;23;20244;-43
2022/11/12 10:39:53;;;;;;;6.80;4.20;;;9.90;99.90;;;;;;6156795;23;20137;-44
2022/11/12 10:42:21;;;;;;;5.57;4.23;;;10.00;99.90;;;;;;6156254;23;20164;-44
2022/11/12 10:44:47;;;;;;;5.33;4.00;;;10.10;99.90;;;;;;6130202;23;20506;-41
2022/11/12 10:47:24;;;;;;;5.50;4.20;;;10.20;99.90;;;;;;6156335;23;20160;-44
2022/11/12 10:50:04;;;;;;;5.50;4.40;;;10.30;99.90;;;;;;6130308;23;20257;-42
2022/11/12 10:52:30;;;;;;;5.67;4.00;;;10.30;99.90;;;;;;6156762;23;20171;-42
2022/11/12 10:55:23;;;;;;;6.87;4.10;;;10.40;99.90;;;;;;6156662;23;20177;-44
2022/11/12 10:58:04;;;;;;;7.00;4.40;;;10.50;99.90;;;;;;6151973;23;20249;-44
2022/11/12 11:00:30;;;;;;;6.43;3.97;;;10.60;99.90;;;;;;6156607;23;20160;-44
2022/11/12 11:02:55;;;;;;;4.37;3.37;;;10.70;99.90;;;;;;6156307;23;20152;-46
2022/11/12 11:05:37;;;;;;;5.50;3.70;;;10.80;99.90;;;;;;6156505;23;20168;-44
2022/11/12 11:08:04;;;;;;;6.20;3.67;;;10.90;99.90;;;;;;6130272;23;20228;-43
2022/11/12 11:10:35;;;;;;;5.87;3.50;;;11.00;99.90;;;;;;6156855;23;20509;-44
2022/11/12 11:13:25;;;;;;;4.27;3.57;;;11.10;99.90;;;;;;6156165;23;20671;-41
2022/11/12 11:16:01;;;;;;;6.63;3.80;;;11.10;99.90;;;;;;6156430;23;20170;-44
2022/11/12 11:18:35;;;;;;;3.57;3.10;;;11.20;99.90;;;;;;6156397;23;20179;-43
2022/11/12 11:21:37;;;;;;;4.10;3.40;;;11.30;99.90;;;;;;6154499;23;20153;-44
2022/11/12 11:24:37;;;;;;;4.40;3.57;;;11.40;99.90;;;;;;6156069;23;20153;-45
2022/11/12 11:27:50;;;;;;;5.67;3.70;;;11.60;99.90;;;;;;6160390;23;20146;-49
2022/11/12 11:30:20;;;;;;;4.63;3.27;;;11.70;99.90;;;;;;6113998;23;20158;-49
2022/11/12 11:33:03;;;;;;;5.03;3.40;;;11.80;99.90;;;;;;6157821;23;20153;-49
2022/11/12 11:35:47;;;;;;;6.77;3.77;;;11.90;99.90;;;;;;6158115;23;20174;-49
2022/11/12 11:38:34;;;;;;;4.47;3.20;;;12.00;99.90;;;;;;6157000;23;20508;-49
2022/11/12 11:41:15;;;;;;;4.27;3.40;;;12.20;99.90;;;;;;6156920;23;20137;-50
2022/11/12 11:44:06;;;;;;;4.60;3.20;;;12.30;99.90;;;;;;6156916;23;20464;-50
2022/11/12 11:46:40;;;;;;;4.90;3.40;;;12.40;99.90;;;;;;6156486;23;20239;-49
2022/11/12 11:49:31;;;;;;;5.23;3.60;;;12.50;99.90;;;;;;6155904;23;20179;-51
2022/11/12 11:52:12;;;;;;;4.47;3.73;;;12.70;99.90;;;;;;6156244;23;20196;-49
2022/11/12 11:55:04;;;;;;;5.13;3.43;;;12.70;99.90;;;;;;6156204;23;20639;-50
2022/11/12 11:57:51;;;;;;;4.63;3.70;;;12.90;99.90;;;;;;6156280;23;20174;-50
2022/11/12 12:00:19;;;;;;;6.10;3.80;;;13.00;99.90;;;;;;6157091;23;20142;-51
2022/11/12 12:03:17;;;;;;;4.70;3.60;;;13.00;99.90;;;;;;6157729;23;20225;-51
2022/11/12 12:05:52;;;;;;;4.70;3.77;;;13.20;99.90;;;;;;6156226;23;20181;-51
2022/11/12 12:08:24;;;;;;;5.17;4.00;;;13.30;99.90;;;;;;6158361;23;20264;-49
2022/11/12 12:11:09;;;;;;;5.33;3.53;;;13.30;99.90;;;;;;6158167;23;20703;-50
2022/11/12 12:13:37;;;;;;;5.57;3.60;;;13.40;99.90;;;;;;6159574;23;20146;-51
2022/11/12 12:16:20;;;;;;;4.37;3.60;;;13.50;99.90;;;;;;6159727;23;20180;-49
2022/11/12 12:18:54;;;;;;;5.33;3.27;;;13.60;99.90;;;;;;6159217;23;20169;-52
2022/11/12 12:21:22;;;;;;;4.30;3.60;;;13.70;99.90;;;;;;6160050;23;20149;-49
2022/11/12 12:23:55;;;;;;;5.07;3.77;;;13.80;99.90;;;;;;6159270;23;20196;-51
2022/11/12 12:26:29;;;;;;;6.70;3.63;;;13.90;99.90;;;;;;6159065;23;20176;-52
2022/11/12 12:29:06;;;;;;;5.77;3.70;;;14.00;99.90;;;;;;6157675;23;20183;-43
2022/11/12 12:31:39;;;;;;;6.37;3.60;;;14.10;99.90;;;;;;6156075;23;20146;-43
2022/11/12 12:34:14;;;;;;;4.97;3.70;;;14.10;99.90;;;;;;6156319;23;20185;-45
2022/11/12 12:36:42;;;;;;;5.93;3.77;;;14.20;99.90;;;;;;6155728;23;20153;-45
2022/11/12 12:39:26;;;;;;;5.07;4.13;;;14.30;99.90;;;;;;6156726;23;20173;-45
2022/11/12 12:42:00;;;;;;;4.97;4.00;;;14.30;99.90;;;;;;6156071;23;20229;-45
2022/11/12 12:47:18;;;;;;;4.50;4.10;;;14.40;99.90;;;;;;6155737;23;20156;-44
2022/11/12 12:49:47;;;;;;;5.93;4.10;;;14.50;99.90;;;;;;6155711;23;20164;-45
2022/11/12 12:52:14;;;;;;;6.60;4.13;;;14.50;99.90;;;;;;6155666;23;20152;-44
2022/11/12 12:54:39;;;;;;;5.10;4.20;;;14.60;99.90;;;;;;6155576;23;20191;-44
2022/11/12 12:57:30;;;;;;;5.47;3.80;;;14.70;99.90;;;;;;6155893;23;20177;-45
2022/11/12 13:00:26;;;;;;;4.93;4.00;;;14.70;99.90;;;;;;6159495;23;20153;-46
2022/11/12 13:02:52;;;;;;;4.23;3.80;;;14.80;99.90;;;;;;6156346;23;20229;-46
2022/11/12 13:05:26;;;;;;;6.00;4.20;;;14.90;99.90;;;;;;6156429;23;20205;-45
2022/11/12 13:07:52;;;;;;;5.83;4.13;;;14.90;99.90;;;;;;6157945;23;20178;-45
2022/11/12 13:10:46;;;;;;;7.53;4.20;;;15.00;99.90;;;;;;6157457;23;20232;-47
2022/11/12 13:13:17;;;;;;;5.80;4.70;;;15.00;99.90;;;;;;6157338;23;20142;-46
2022/11/12 13:15:53;;;;;;;6.77;4.47;;;15.10;99.90;;;;;;6156685;23;20246;-46
2022/11/12 13:18:37;;;;;;;5.90;4.53;;;15.10;99.90;;;;;;6157186;23;20180;-46
2022/11/12 13:21:13;;;;;;;10.40;5.20;;;15.10;99.90;;;;;;6157642;23;20599;-46
2022/11/12 13:24:07;;;;;;;9.00;5.50;;;15.10;99.90;;;;;;6157449;23;20149;-44
2022/11/12 13:26:49;;;;;;;9.53;5.53;;;15.10;99.90;;;;;;6157184;23;20585;-44
2022/11/12 13:29:21;;;;;;;8.40;5.33;;;15.20;99.90;;;;;;6157452;23;20178;-45